createdAt,value
2023-01-02T00:01:36.062Z,6.77
2023-01-02T00:04:38.674Z,6.80
2023-01-02T00:07:48.022Z,6.00
2023-01-02T00:10:53.008Z,7.67
2023-01-02T00:13:55.923Z,7.50
2023-01-02T00:16:58.637Z,7.60
2023-01-02T00:20:01.857Z,7.07
2023-01-02T00:23:07.116Z,6.83
2023-01-02T00:26:14.186Z,8.13
2023-01-02T00:29:16.806Z,6.27
2023-01-02T00:32:19.506Z,8.87
2023-01-02T00:35:22.190Z,8.20
2023-01-02T00:38:26.295Z,8.67
2023-01-02T00:41:29.023Z,8.27
2023-01-02T00:44:32.052Z,7.80
2023-01-02T00:47:37.018Z,8.20
2023-01-02T00:50:39.720Z,7.10
2023-01-02T00:53:49.757Z,6.23
2023-01-02T00:56:52.397Z,6.93
2023-01-02T00:59:55.051Z,6.90
2023-01-02T01:02:58.377Z,5.87
2023-01-02T01:06:06.347Z,6.20
2023-01-02T01:09:13.458Z,6.13
2023-01-02T01:12:16.099Z,6.37
2023-01-02T01:15:18.862Z,6.77
2023-01-02T01:18:21.484Z,6.50
2023-01-02T01:21:24.810Z,6.33
2023-01-02T01:24:28.976Z,6.60
2023-01-02T01:27:31.667Z,7.13
2023-01-02T01:30:37.380Z,5.40
2023-01-02T01:33:42.145Z,6.30
2023-01-02T01:36:44.819Z,6.20
2023-01-02T01:39:52.689Z,5.37
2023-01-02T01:43:01.043Z,5.57
2023-01-02T01:46:07.685Z,5.83
2023-01-02T01:49:14.830Z,5.83
2023-01-02T01:52:23.256Z,5.00
2023-01-02T01:55:32.558Z,6.13
2023-01-02T01:58:39.350Z,5.30
2023-01-02T02:01:43.536Z,5.63
2023-01-02T02:04:49.247Z,5.67
2023-01-02T02:08:01.974Z,5.60
2023-01-02T02:11:07.028Z,6.50
2023-01-02T02:14:09.694Z,6.43
2023-01-02T02:17:24.091Z,6.47
2023-01-02T02:20:34.502Z,5.03
2023-01-02T02:24:08.776Z,6.07
2023-01-02T02:27:51.578Z,6.17
2023-01-02T02:30:58.526Z,5.50
2023-01-02T02:34:10.701Z,5.50
2023-01-02T02:37:25.169Z,5.73
2023-01-02T02:40:36.827Z,5.47
2023-01-02T02:43:52.411Z,5.17
2023-01-02T02:47:02.524Z,5.53
2023-01-02T02:50:11.172Z,5.20
2023-01-02T02:53:20.357Z,5.17
2023-01-02T02:56:25.999Z,5.50
2023-01-02T02:59:29.598Z,4.70
2023-01-02T03:02:34.355Z,4.97
2023-01-02T03:05:41.776Z,5.20
2023-01-02T03:08:59.383Z,5.10
2023-01-02T03:12:12.121Z,5.00
2023-01-02T03:15:24.563Z,4.93
2023-01-02T03:18:35.496Z,5.30
2023-01-02T03:21:42.378Z,4.83
2023-01-02T03:24:47.710Z,5.80
2023-01-02T03:27:58.880Z,5.60
2023-01-02T03:31:03.979Z,5.50
2023-01-02T03:34:14.192Z,4.77
2023-01-02T03:37:22.977Z,4.73
2023-01-02T03:40:40.031Z,4.60
2023-01-02T03:43:50.106Z,4.93
2023-01-02T03:47:06.407Z,5.20
2023-01-02T03:50:16.483Z,5.40
2023-01-02T03:53:20.771Z,6.17
2023-01-02T03:56:30.807Z,5.77
2023-01-02T03:59:42.226Z,5.17
2023-01-02T04:02:50.643Z,5.17
2023-01-02T04:06:05.744Z,4.93
2023-01-02T04:09:11.449Z,4.77
2023-01-02T04:12:20.399Z,4.37
2023-01-02T04:15:25.069Z,4.80
2023-01-02T04:18:32.309Z,4.77
2023-01-02T04:21:39.673Z,5.00
2023-01-02T04:24:51.353Z,4.77
2023-01-02T04:28:00.296Z,4.97
2023-01-02T04:31:20.617Z,5.43
2023-01-02T04:34:24.809Z,4.93
2023-01-02T04:37:31.021Z,5.03
2023-01-02T04:40:37.625Z,3.73
2023-01-02T04:43:43.337Z,5.40
2023-01-02T04:46:46.012Z,4.93
2023-01-02T04:49:54.930Z,4.50
2023-01-02T04:52:58.946Z,4.70
2023-01-02T04:56:02.050Z,4.50
2023-01-02T04:59:04.775Z,4.17
2023-01-02T05:02:07.564Z,4.63
2023-01-02T05:05:11.636Z,3.93
2023-01-02T05:08:16.578Z,4.17
2023-01-02T05:11:22.490Z,4.33
2023-01-02T05:14:25.219Z,4.70
2023-01-02T05:17:27.924Z,4.70
2023-01-02T05:20:30.582Z,4.40
2023-01-02T05:23:50.330Z,4.43
2023-01-02T05:26:53.030Z,4.50
2023-01-02T05:29:55.706Z,4.43
2023-01-02T05:32:58.535Z,4.30
2023-01-02T05:36:01.232Z,4.63
2023-01-02T05:39:08.565Z,6.47
2023-01-02T05:42:11.255Z,4.67
2023-01-02T05:45:14.005Z,4.93
2023-01-02T05:48:16.754Z,4.73
2023-01-02T05:51:20.502Z,4.60
2023-01-02T05:54:24.712Z,5.10
2023-01-02T05:57:27.547Z,5.33
2023-01-02T06:00:30.523Z,4.73
2023-01-02T06:03:33.406Z,4.47
2023-01-02T06:06:38.200Z,4.60
2023-01-02T06:09:42.271Z,4.03
2023-01-02T06:12:45.011Z,4.77
2023-01-02T06:15:47.699Z,6.63
2023-01-02T06:18:50.804Z,8.87
2023-01-02T06:21:53.516Z,8.13
2023-01-02T06:24:57.597Z,5.20
2023-01-02T06:28:00.319Z,5.90
2023-01-02T06:31:05.738Z,4.90
2023-01-02T06:34:08.516Z,5.40
2023-01-02T06:37:11.568Z,5.53
2023-01-02T06:40:15.848Z,6.00
2023-01-02T06:43:18.563Z,5.03
2023-01-02T06:46:23.344Z,5.17
2023-01-02T06:49:26.059Z,4.60
2023-01-02T06:52:29.543Z,4.80
2023-01-02T06:55:33.613Z,4.80
2023-01-02T06:58:38.106Z,4.37
2023-01-02T07:01:41.221Z,4.27
2023-01-02T07:04:44.101Z,5.03
2023-01-02T07:07:47.022Z,5.73
2023-01-02T07:10:53.134Z,4.97
2023-01-02T07:13:56.474Z,6.27
2023-01-02T07:16:59.302Z,8.53
2023-01-02T07:20:02.804Z,8.07
2023-01-02T07:23:05.591Z,15.93
2023-01-02T07:26:10.500Z,7.10
2023-01-02T07:29:13.209Z,5.40
2023-01-02T07:32:17.453Z,6.67
2023-01-02T07:35:21.530Z,8.20
2023-01-02T07:38:24.218Z,7.40
2023-01-02T07:41:28.337Z,7.40
2023-01-02T07:44:31.010Z,7.53
2023-01-02T07:47:33.715Z,6.80
2023-01-02T07:50:36.503Z,5.50
2023-01-02T07:53:41.542Z,6.13
2023-01-02T07:56:45.794Z,5.33
2023-01-02T07:59:50.100Z,5.30
2023-01-02T08:02:55.241Z,7.50
2023-01-02T08:06:03.800Z,12.40
2023-01-02T08:09:06.593Z,4.13
2023-01-02T08:12:11.469Z,24.77
2023-01-02T08:15:14.227Z,6.07
2023-01-02T08:18:16.964Z,12.73
2023-01-02T08:21:19.842Z,6.73
2023-01-02T08:24:22.558Z,4.70
2023-01-02T08:27:26.603Z,5.60
2023-01-02T08:30:29.388Z,4.90
2023-01-02T08:33:32.041Z,5.03
2023-01-02T08:36:35.718Z,5.70
2023-01-02T08:39:38.425Z,5.33
2023-01-02T08:42:43.747Z,7.17
2023-01-02T08:45:46.481Z,4.57
2023-01-02T08:48:49.264Z,4.87
2023-01-02T08:51:51.979Z,4.83
2023-01-02T08:54:54.762Z,5.40
2023-01-02T08:57:58.772Z,6.47
2023-01-02T09:01:02.299Z,5.40
2023-01-02T09:04:12.015Z,5.93
2023-01-02T09:07:15.897Z,5.27
2023-01-02T09:10:18.609Z,4.50
2023-01-02T09:13:22.673Z,4.70
2023-01-02T09:16:25.564Z,5.10
2023-01-02T09:19:28.412Z,6.07
2023-01-02T09:22:31.138Z,6.50
2023-01-02T09:25:33.809Z,6.73
2023-01-02T09:28:38.183Z,7.30
2023-01-02T09:31:41.501Z,5.57
2023-01-02T09:34:50.246Z,9.40
2023-01-02T09:37:52.969Z,5.47
2023-01-02T09:40:56.346Z,4.50
2023-01-02T09:44:03.031Z,5.40
2023-01-02T09:47:09.207Z,4.40
2023-01-02T09:50:17.050Z,6.80
2023-01-02T09:53:19.823Z,6.07
2023-01-02T09:56:30.373Z,5.53
2023-01-02T09:59:47.927Z,4.90
2023-01-02T10:03:07.892Z,5.67
2023-01-02T10:06:16.195Z,6.50
2023-01-02T10:09:27.389Z,3.93
2023-01-02T10:12:37.340Z,3.97
2023-01-02T10:15:45.089Z,2.50
2023-01-02T10:18:52.556Z,4.20
2023-01-02T10:22:00.131Z,2.60
2023-01-02T10:25:07.998Z,1.80
2023-01-02T10:28:23.173Z,2.00
2023-01-02T10:31:40.739Z,2.37
2023-01-02T10:34:51.671Z,2.17
2023-01-02T10:37:56.337Z,2.07
2023-01-02T10:40:59.055Z,2.00
2023-01-02T10:44:03.705Z,2.23
2023-01-02T10:47:14.382Z,1.97
2023-01-02T10:50:19.966Z,1.90
2023-01-02T10:53:29.541Z,2.03
2023-01-02T10:56:34.000Z,2.23
2023-01-02T10:59:36.728Z,2.80
2023-01-02T11:02:42.210Z,2.00
2023-01-02T11:05:48.073Z,1.80
2023-01-02T11:08:58.071Z,2.47
2023-01-02T11:12:10.171Z,2.10
2023-01-02T11:15:14.831Z,1.97
2023-01-02T11:18:23.805Z,1.90
2023-01-02T11:21:30.003Z,2.00
2023-01-02T11:24:35.276Z,2.40
2023-01-02T11:27:42.956Z,1.50
2023-01-02T11:30:48.540Z,1.87
2023-01-02T11:33:52.619Z,2.03
2023-01-02T11:37:04.359Z,2.33
2023-01-02T11:40:25.311Z,1.30
2023-01-02T11:43:50.083Z,2.43
2023-01-02T11:46:54.404Z,1.97
2023-01-02T11:49:59.242Z,2.20
2023-01-02T11:53:03.966Z,1.87
2023-01-02T11:56:12.005Z,1.67
2023-01-02T11:59:19.362Z,1.80
2023-01-02T12:02:27.967Z,1.87
2023-01-02T12:05:43.800Z,1.90
2023-01-02T12:09:00.819Z,1.60
2023-01-02T12:12:23.306Z,1.63
2023-01-02T12:15:47.947Z,2.00
2023-01-02T12:19:06.736Z,1.80
2023-01-02T12:22:33.243Z,1.67
2023-01-02T12:25:52.692Z,1.60
2023-01-02T12:29:10.827Z,1.43
2023-01-02T12:32:31.368Z,1.83
2023-01-02T12:36:12.596Z,1.60
2023-01-02T12:39:42.489Z,1.87
2023-01-02T12:43:05.986Z,1.83
2023-01-02T12:46:23.496Z,1.73
2023-01-02T12:49:53.101Z,1.80
2023-01-02T12:53:09.442Z,1.50
2023-01-02T12:56:18.932Z,1.77
2023-01-02T12:59:39.456Z,1.83
2023-01-02T13:03:01.922Z,1.90
2023-01-02T13:06:45.357Z,1.50
2023-01-02T13:09:40.805Z,1.70
2023-01-02T13:12:46.246Z,1.73
2023-01-02T13:15:51.831Z,2.00
2023-01-02T13:19:06.815Z,1.70
2023-01-02T13:22:20.825Z,1.53
2023-01-02T13:25:24.700Z,2.23
2023-01-02T13:28:29.114Z,1.60
2023-01-02T13:31:49.551Z,1.67
2023-01-02T13:34:54.773Z,1.80
2023-01-02T13:38:07.849Z,1.87
2023-01-02T13:41:16.877Z,1.87
2023-01-02T13:44:32.825Z,1.90
2023-01-02T13:47:38.345Z,1.90
2023-01-02T13:50:41.282Z,1.93
2023-01-02T13:53:46.228Z,2.10
2023-01-02T13:57:17.862Z,1.93
2023-01-02T14:00:38.205Z,2.20
2023-01-02T14:03:41.205Z,2.10
2023-01-02T14:06:53.531Z,1.57
2023-01-02T14:10:14.656Z,1.70
2023-01-02T14:13:25.558Z,1.40
2023-01-02T14:16:51.568Z,1.83
2023-01-02T14:20:22.948Z,2.93
2023-01-02T14:23:29.572Z,1.93
2023-01-02T14:26:35.716Z,1.60
2023-01-02T14:29:50.603Z,1.70
2023-01-02T14:32:59.938Z,1.60
2023-01-02T14:36:07.642Z,1.70
2023-01-02T14:39:19.776Z,1.90
2023-01-02T14:42:45.062Z,1.80
2023-01-02T14:45:51.211Z,2.10
2023-01-02T14:49:00.253Z,2.17
2023-01-02T14:52:07.938Z,1.77
2023-01-02T14:55:16.912Z,2.40
2023-01-02T14:58:26.591Z,1.73
2023-01-02T15:01:43.399Z,1.73
2023-01-02T15:04:51.957Z,2.07
2023-01-02T15:07:56.793Z,2.03
2023-01-02T15:11:23.123Z,1.70
2023-01-02T15:14:25.852Z,1.57
2023-01-02T15:17:28.667Z,1.57
2023-01-02T15:20:34.829Z,1.70
2023-01-02T15:23:43.299Z,1.70
2023-01-02T15:26:46.038Z,2.27
2023-01-02T15:29:51.252Z,1.70
2023-01-02T15:32:54.067Z,1.80
2023-01-02T15:36:01.941Z,1.97
2023-01-02T15:39:15.238Z,1.87
2023-01-02T15:42:39.656Z,1.70
2023-01-02T15:45:45.018Z,2.17
2023-01-02T15:48:50.107Z,1.60
2023-01-02T15:51:57.585Z,1.77
2023-01-02T15:55:01.045Z,1.83
2023-01-02T15:58:21.756Z,1.77
2023-01-02T16:01:25.037Z,2.60
2023-01-02T16:04:29.489Z,1.80
2023-01-02T16:07:36.748Z,2.93
2023-01-02T16:10:39.696Z,2.27
2023-01-02T16:14:04.959Z,2.37
2023-01-02T16:17:20.658Z,2.73
2023-01-02T16:20:25.237Z,2.40
2023-01-02T16:23:29.399Z,2.23
2023-01-02T16:26:34.026Z,2.13
2023-01-02T16:29:42.744Z,3.70
2023-01-02T16:32:49.326Z,2.63
2023-01-02T16:36:00.336Z,2.33
2023-01-02T16:39:09.599Z,2.50
2023-01-02T16:42:29.972Z,2.60
2023-01-02T16:45:35.148Z,2.10
2023-01-02T16:48:40.281Z,2.03
2023-01-02T16:51:45.120Z,2.00
2023-01-02T16:54:53.871Z,1.93
2023-01-02T16:57:57.011Z,2.10
2023-01-02T17:00:59.783Z,1.10
2023-01-02T17:04:03.052Z,1.73
2023-01-02T17:07:06.772Z,3.47
2023-01-02T17:10:11.170Z,6.53
2023-01-02T17:13:14.022Z,1.10
2023-01-02T17:16:17.541Z,2.20
2023-01-02T17:19:21.372Z,1.90
2023-01-02T17:22:24.130Z,1.07
2023-01-02T17:25:29.055Z,0.97
2023-01-02T17:28:31.748Z,1.00
2023-01-02T17:31:34.485Z,0.70
2023-01-02T17:34:37.152Z,0.70
2023-01-02T17:37:39.938Z,0.90
2023-01-02T17:40:44.118Z,2.63
2023-01-02T17:44:02.600Z,1.30
2023-01-02T17:50:29.748Z,0.60
2023-01-02T17:53:33.002Z,0.77
2023-01-02T17:56:37.127Z,0.43
2023-01-02T17:59:41.122Z,0.60
2023-01-02T18:02:44.477Z,1.00
2023-01-02T18:05:47.290Z,2.00
2023-01-02T18:08:51.093Z,1.50
2023-01-02T18:11:55.266Z,0.70
2023-01-02T18:15:03.865Z,0.93
2023-01-02T18:18:14.044Z,2.07
2023-01-02T18:21:19.269Z,0.87
2023-01-02T18:24:25.656Z,1.17
2023-01-02T18:27:32.766Z,4.70
2023-01-02T18:30:36.727Z,1.17
2023-01-02T18:33:39.515Z,2.30
2023-01-02T18:36:42.326Z,1.73
2023-01-02T18:39:45.214Z,0.70
2023-01-02T18:42:55.409Z,0.83
2023-01-02T18:46:02.384Z,1.10
2023-01-02T18:49:16.379Z,1.00
2023-01-02T18:52:25.646Z,1.10
2023-01-02T18:55:34.065Z,0.90
2023-01-02T18:58:44.090Z,0.93
2023-01-02T19:01:51.418Z,0.77
2023-01-02T19:04:56.246Z,0.63
2023-01-02T19:08:14.473Z,0.90
2023-01-02T19:11:34.236Z,0.80
2023-01-02T19:14:42.114Z,1.80
2023-01-02T19:17:44.879Z,1.40
2023-01-02T19:20:55.451Z,0.90
2023-01-02T19:23:59.612Z,1.50
2023-01-02T19:27:10.743Z,0.80
2023-01-02T19:30:30.296Z,0.80
2023-01-02T19:33:39.417Z,1.80
2023-01-02T19:36:43.114Z,0.77
2023-01-02T19:39:49.282Z,2.80
2023-01-02T19:42:53.850Z,1.40
2023-01-02T19:45:57.976Z,1.60
2023-01-02T19:49:00.818Z,3.37
2023-01-02T19:52:03.617Z,1.70
2023-01-02T19:55:08.971Z,1.20
2023-01-02T19:58:11.683Z,1.00
2023-01-02T20:01:16.017Z,1.00
2023-01-02T20:04:19.144Z,1.00
2023-01-02T20:07:22.849Z,0.90
2023-01-02T20:10:26.479Z,0.80
2023-01-02T20:13:29.159Z,1.30
2023-01-02T20:16:33.181Z,4.77
2023-01-02T20:19:36.507Z,3.40
2023-01-02T20:22:39.280Z,2.80
2023-01-02T20:25:42.087Z,1.13
2023-01-02T20:28:44.913Z,3.30
2023-01-02T20:31:49.769Z,2.37
2023-01-02T20:34:53.282Z,1.00
2023-01-02T20:37:56.191Z,12.67
2023-01-02T20:40:59.050Z,4.10
2023-01-02T20:44:02.219Z,4.20
2023-01-02T20:47:07.048Z,1.60
2023-01-02T20:50:10.505Z,0.50
2023-01-02T20:53:13.277Z,0.77
2023-01-02T20:56:16.274Z,0.63
2023-01-02T20:59:19.926Z,0.70
2023-01-02T21:02:24.153Z,0.97
2023-01-02T21:05:26.986Z,1.67
2023-01-02T21:08:29.952Z,3.50
2023-01-02T21:11:33.019Z,2.60
2023-01-02T21:14:37.899Z,4.13
2023-01-02T21:17:42.181Z,2.20
2023-01-02T21:20:47.141Z,1.60
2023-01-02T21:23:51.279Z,1.83
2023-01-02T21:26:53.973Z,1.10
2023-01-02T21:29:56.726Z,1.10
2023-01-02T21:33:00.797Z,1.20
2023-01-02T21:36:08.420Z,0.90
2023-01-02T21:39:11.651Z,0.83
2023-01-02T21:42:17.221Z,0.70
2023-01-02T21:45:19.902Z,0.70
2023-01-02T21:48:23.943Z,0.90
2023-01-02T21:51:32.367Z,1.43
2023-01-02T21:54:35.817Z,15.13
2023-01-02T21:58:11.493Z,1.00
2023-01-02T22:01:02.697Z,0.63
2023-01-02T22:04:07.123Z,0.90
2023-01-02T22:07:31.364Z,0.93
2023-01-02T22:10:32.732Z,0.90
2023-01-02T22:13:35.458Z,0.90
2023-01-02T22:16:38.264Z,0.60
2023-01-02T22:19:42.403Z,0.90
2023-01-02T22:22:45.263Z,0.87
2023-01-02T22:25:48.161Z,0.80
2023-01-02T22:28:51.517Z,0.70
2023-01-02T22:31:57.488Z,0.67
2023-01-02T22:35:03.373Z,0.63
2023-01-02T22:38:06.189Z,0.70
2023-01-02T22:41:09.949Z,0.90
2023-01-02T22:44:15.772Z,0.90
2023-01-02T22:47:24.779Z,0.70
2023-01-02T22:50:31.798Z,1.00
2023-01-02T22:53:36.323Z,0.90
2023-01-02T22:56:39.049Z,1.00
2023-01-02T22:59:42.741Z,0.70
2023-01-02T23:02:46.041Z,0.90
2023-01-02T23:05:50.262Z,0.70
2023-01-02T23:08:53.839Z,0.80
2023-01-02T23:11:56.625Z,0.80
2023-01-02T23:14:59.335Z,0.90
2023-01-02T23:18:19.406Z,1.00
2023-01-02T23:21:24.369Z,0.90
2023-01-02T23:24:29.418Z,1.10
2023-01-02T23:27:33.746Z,1.10
2023-01-02T23:30:36.691Z,1.00
2023-01-02T23:33:39.462Z,1.07
2023-01-02T23:36:44.387Z,1.10
2023-01-02T23:39:47.126Z,0.90
2023-01-02T23:42:49.801Z,1.20
2023-01-02T23:45:52.561Z,1.10
2023-01-02T23:48:55.358Z,1.20
2023-01-02T23:51:59.573Z,1.20
2023-01-02T23:55:02.306Z,1.10
2023-01-02T23:58:05.154Z,1.50
